Time;durP1;ratioP1;P1;durP2;ratioP2;P2;SDS_P1;SDS_P2;PMS_P1;PMS_P2;Temp;Humidity;BMP_temperature;BMP_pressure;BME280_temperature;BME280_humidity;BME280_pressure;Samples;Min_cycle;Max_cycle;Signal;HPM_P1;HPM_P2
2021/05/22 00:00:18;;;;;;;8.75;2.45;;;;;;;15.42;49.32;99323.78;3326422;29;20058;-77
2021/05/22 00:01:59;;;;;;;4.97;2.17;;;;;;;15.40;49.50;99325.88;3326244;29;20054;-77
2021/05/22 00:03:40;;;;;;;5.18;2.00;;;;;;;15.40;49.40;99328.56;3326555;29;20202;-78
2021/05/22 00:05:20;;;;;;;8.25;2.83;;;;;;;15.36;49.36;99330.91;3326404;29;20034;-79
2021/05/22 00:07:02;;;;;;;9.65;2.00;;;;;;;15.34;49.49;99333.00;3326753;29;20042;-78
2021/05/22 00:08:42;;;;;;;7.85;2.75;;;;;;;15.31;49.63;99324.59;3325709;29;20046;-78
2021/05/22 00:10:23;;;;;;;10.73;1.60;;;;;;;15.33;49.55;99341.28;3325446;29;20054;-78
2021/05/22 00:12:04;;;;;;;6.13;2.03;;;;;;;15.33;49.57;99335.91;3325704;29;20049;-79
2021/05/22 00:13:45;;;;;;;7.78;2.60;;;;;;;15.27;49.50;99330.44;3325589;29;20050;-80
2021/05/22 00:15:26;;;;;;;6.68;1.98;;;;;;;15.27;49.53;99333.13;3325703;29;20533;-78
2021/05/22 00:17:06;;;;;;;7.10;2.22;;;;;;;15.24;49.54;99332.78;3325626;29;20046;-78
2021/05/22 00:18:47;;;;;;;6.55;2.50;;;;;;;15.26;49.57;99336.06;3325612;29;20133;-79
2021/05/22 00:20:28;;;;;;;7.90;2.45;;;;;;;15.21;49.57;99331.38;3325541;29;20471;-77
2021/05/22 00:22:09;;;;;;;12.07;2.40;;;;;;;15.20;49.50;99340.47;3325565;29;20069;-77
2021/05/22 00:23:49;;;;;;;7.80;2.08;;;;;;;15.19;49.52;99335.34;3325600;29;20256;-78
2021/05/22 00:25:30;;;;;;;7.43;2.05;;;;;;;15.10;49.57;99326.00;3325690;29;20062;-77
2021/05/22 00:27:11;;;;;;;4.95;2.03;;;;;;;15.10;49.66;99326.00;3336967;29;20041;-78
2021/05/22 00:28:51;;;;;;;9.48;2.47;;;;;;;15.13;49.73;99337.09;3327672;29;20070;-77
2021/05/22 00:30:32;;;;;;;7.72;2.78;;;;;;;15.10;49.63;99332.22;3325467;29;20050;-78
2021/05/22 00:32:25;;;;;;;6.95;2.13;;;;;;;15.08;49.90;99334.31;3325514;29;20605;-78
2021/05/22 00:34:05;;;;;;;5.60;2.47;;;;;;;15.09;49.62;99335.94;3325491;29;20106;-77
2021/05/22 00:35:46;;;;;;;3.83;1.60;;;;;;;15.08;49.73;99339.66;3325272;29;20042;-78
2021/05/22 00:37:27;;;;;;;10.15;2.20;;;;;;;15.08;49.68;99336.97;3325182;29;20046;-76
2021/05/22 00:39:08;;;;;;;7.03;2.15;;;;;;;15.05;49.66;99326.72;3325203;29;20503;-78
2021/05/22 00:40:48;;;;;;;4.22;2.05;;;;;;;15.02;49.78;99337.91;3325167;29;20074;-76
2021/05/22 00:42:29;;;;;;;10.77;1.98;;;;;;;15.01;49.62;99333.59;3324931;29;20050;-77
2021/05/22 00:44:10;;;;;;;5.57;1.77;;;;;;;14.97;49.70;99327.03;3324952;29;20050;-76
2021/05/22 00:45:54;;;;;;;8.85;2.22;;;;;;;15.00;49.60;99338.16;3324887;29;20049;-77
2021/05/22 00:47:38;;;;;;;5.55;2.30;;;;;;;14.63;49.76;99283.84;3325075;29;20066;-77
2021/05/22 00:49:19;;;;;;;3.97;1.85;;;;;;;14.98;49.60;99342.91;3323716;29;20066;-77
2021/05/22 00:51:00;;;;;;;4.57;1.92;;;;;;;14.78;49.62;99310.22;3324955;29;20050;-77
2021/05/22 00:52:41;;;;;;;6.63;2.10;;;;;;;14.93;49.45;99336.63;3311481;29;20147;-77
2021/05/22 00:54:21;;;;;;;10.80;2.83;;;;;;;14.93;49.60;99336.63;3321373;29;20105;-79
2021/05/22 00:56:03;;;;;;;6.03;2.83;;;;;;;14.75;49.53;99311.50;3324644;29;20049;-77
2021/05/22 00:57:44;;;;;;;6.55;2.22;;;;;;;14.69;49.81;99307.06;3324200;29;20054;-77
2021/05/22 00:59:25;;;;;;;11.93;2.05;;;;;;;14.55;49.58;99282.31;3321814;29;20154;-77
2021/05/22 01:01:05;;;;;;;4.32;2.42;;;;;;;14.82;49.61;99341.75;3325079;29;20159;-76
2021/05/22 01:02:47;;;;;;;5.10;1.92;;;;;;;14.60;49.72;99308.44;3324187;29;20054;-77
2021/05/22 01:04:28;;;;;;;;;;;;;;;14.94;49.63;99349.78;3321918;29;20058;-76
2021/05/22 01:06:24;;;;;;;6.28;2.92;;;;;;;14.89;49.66;99357.72;3321304;29;19939;-76
2021/05/22 01:08:22;;;;;;;8.65;2.13;;;;;;;14.78;49.65;99345.91;3324705;29;20046;-76
2021/05/22 01:10:05;;;;;;;7.35;2.78;;;;;;;14.73;49.64;99351.16;3323804;29;20046;-75
2021/05/22 01:11:49;;;;;;;8.90;2.08;;;;;;;14.75;49.71;99367.84;3323915;29;20047;-76
2021/05/22 01:13:34;;;;;;;9.30;2.08;;;;;;;14.66;49.79;99352.31;3321809;29;20054;-78
2021/05/22 01:15:17;;;;;;;10.73;2.67;;;;;;;14.48;49.80;99326.34;3321983;29;20046;-79
2021/05/22 01:16:58;;;;;;;5.45;2.85;;;;;;;14.43;49.68;99313.63;3309469;29;20050;-79
2021/05/22 01:18:40;;;;;;;3.20;2.35;;;;;;;14.68;49.78;99358.25;3308294;29;20882;-77
2021/05/22 01:20:37;;;;;;;5.47;2.42;;;;;;;14.70;49.78;99359.66;3323003;29;20054;-76
2021/05/22 01:22:18;;;;;;;9.10;2.17;;;;;;;14.66;49.72;99365.72;3325767;29;20042;-78
2021/05/22 01:24:05;;;;;;;5.53;2.00;;;;;;;14.66;49.76;99361.16;3323253;29;20054;-77
2021/05/22 01:25:45;;;;;;;6.60;2.38;;;;;;;14.44;49.93;99330.53;3323901;29;20548;-79
2021/05/22 01:27:26;;;;;;;3.75;1.98;;;;;;;14.32;49.63;99303.69;3322953;29;20081;-78
2021/05/22 01:29:07;;;;;;;4.32;2.20;;;;;;;14.68;49.78;99361.75;3322812;29;20038;-78
2021/05/22 01:30:48;;;;;;;6.95;2.22;;;;;;;14.37;49.89;99307.31;3310145;29;20054;-77
2021/05/22 01:32:29;;;;;;;4.40;2.15;;;;;;;14.69;49.78;99355.34;3323147;29;20054;-76
2021/05/22 01:34:10;;;;;;;5.40;2.10;;;;;;;14.76;50.01;99366.78;3324076;29;20077;-74
2021/05/22 01:35:57;;;;;;;6.68;1.98;;;;;;;14.77;49.92;99364.94;3325115;29;20050;-79
2021/05/22 01:37:37;;;;;;;5.10;2.00;;;;;;;14.85;49.49;99380.72;3324628;29;20514;-76
2021/05/22 01:39:18;;;;;;;2.58;2.20;;;;;;;14.86;49.30;99368.91;3324955;29;20042;-76
2021/05/22 01:40:59;;;;;;;4.07;1.98;;;;;;;14.85;49.14;99374.53;3322415;29;20042;-76
2021/05/22 01:42:40;;;;;;;9.73;2.40;;;;;;;14.82;49.01;99373.94;3325456;29;20538;-75
2021/05/22 01:44:22;;;;;;;5.57;2.35;;;;;;;14.87;49.10;99380.47;3324066;29;20554;-77
2021/05/22 01:46:03;;;;;;;6.93;2.40;;;;;;;14.83;48.86;99375.56;3321910;29;20138;-76
2021/05/22 01:47:48;;;;;;;6.55;2.80;;;;;;;14.79;48.73;99363.66;3322018;29;20074;-77
2021/05/22 01:49:29;;;;;;;6.78;2.80;;;;;;;14.72;48.51;99360.25;3321417;29;20115;-77
2021/05/22 01:51:15;;;;;;;6.90;2.67;;;;;;;14.82;48.59;99373.13;3324903;29;20422;-75
2021/05/22 01:53:19;;;;;;;9.80;3.22;;;;;;;14.79;48.75;99374.41;3326353;29;20058;-79
2021/05/22 01:55:02;;;;;;;4.57;3.10;;;;;;;14.68;49.05;99351.03;3324218;29;20073;-79
2021/05/22 01:56:44;;;;;;;7.63;2.88;;;;;;;14.89;48.68;99371.13;3324912;29;20299;-78
2021/05/22 01:58:25;;;;;;;5.97;2.42;;;;;;;14.94;48.66;99381.19;3323933;29;20556;-79
2021/05/22 02:00:07;;;;;;;4.40;2.92;;;;;;;14.94;48.64;99378.50;3321510;29;20053;-76
2021/05/22 02:01:56;;;;;;;5.30;1.90;;;;;;;15.00;48.53;99386.44;3322296;29;20167;-77
2021/05/22 02:03:41;;;;;;;5.60;1.98;;;;;;;15.05;48.34;99391.13;3322492;29;20058;-76
2021/05/22 02:05:22;;;;;;;7.50;1.95;;;;;;;15.07;48.33;99380.97;3321849;29;20051;-76
2021/05/22 02:07:03;;;;;;;1.77;1.57;;;;;;;15.09;48.44;99386.09;3321764;29;20050;-79
2021/05/22 02:08:45;;;;;;;4.88;2.13;;;;;;;15.11;48.16;99387.50;3309064;29;20292;-77
2021/05/22 02:10:26;;;;;;;7.50;2.85;;;;;;;15.14;48.21;99392.41;3331513;29;20118;-76
2021/05/22 02:12:08;;;;;;;7.33;2.83;;;;;;;15.12;48.17;99389.13;3323638;29;20053;-77
2021/05/22 02:13:49;;;;;;;5.68;2.42;;;;;;;15.14;48.12;99395.09;3321330;29;20046;-77
2021/05/22 02:15:31;;;;;;;9.50;2.55;;;;;;;15.08;47.76;99397.91;3308722;29;20076;-77
2021/05/22 02:17:13;;;;;;;12.10;2.20;;;;;;;15.09;47.64;99394.16;3308653;29;20078;-77
2021/05/22 02:18:54;;;;;;;;;;;;;;;15.21;47.83;99403.88;3321585;29;20046;-77
2021/05/22 02:20:36;;;;;;;12.57;2.85;;;;;;;15.15;47.61;99403.97;3323614;29;20043;-77
2021/05/22 02:22:21;;;;;;;11.32;3.10;;;;;;;15.08;47.58;99398.72;3324459;29;20071;-79
2021/05/22 02:24:02;;;;;;;7.38;3.97;;;;;;;15.11;47.71;99403.63;3323504;29;20046;-78
2021/05/22 02:25:43;;;;;;;5.65;2.40;;;;;;;15.13;47.41;99404.22;3324619;29;20502;-78
2021/05/22 02:27:24;;;;;;;7.90;2.30;;;;;;;15.15;47.29;99409.34;3324280;29;20049;-77
2021/05/22 02:29:06;;;;;;;8.48;2.22;;;;;;;15.15;47.22;99406.66;3324709;29;20042;-78
2021/05/22 02:30:48;;;;;;;7.47;2.38;;;;;;;15.17;47.15;99418.78;3323762;29;20054;-77
2021/05/22 02:32:28;;;;;;;7.40;2.53;;;;;;;15.19;47.20;99426.63;3324296;29;20058;-77
2021/05/22 02:34:09;;;;;;;10.60;2.47;;;;;;;15.17;47.22;99428.72;3324666;29;20137;-78
2021/05/22 02:36:00;;;;;;;8.98;3.15;;;;;;;15.17;47.05;99426.84;3324176;29;20054;-79
2021/05/22 02:37:41;;;;;;;8.13;2.35;;;;;;;15.21;47.16;99429.91;3323894;29;20047;-76
2021/05/22 02:39:22;;;;;;;12.77;3.00;;;;;;;15.21;47.17;99429.91;3324358;29;20061;-76
2021/05/22 02:41:05;;;;;;;8.10;2.47;;;;;;;15.25;47.08;99431.88;3323709;29;20561;-75
2021/05/22 02:42:52;;;;;;;7.78;2.67;;;;;;;15.27;47.13;99428.97;3324068;29;20072;-76
2021/05/22 02:44:33;;;;;;;11.05;2.85;;;;;;;15.28;47.15;99435.97;3324011;29;20065;-77
2021/05/22 02:46:15;;;;;;;9.93;3.20;;;;;;;15.29;47.10;99431.44;3335724;29;20065;-78
2021/05/22 02:48:00;;;;;;;9.55;2.85;;;;;;;15.29;47.15;99431.44;3325782;29;20054;-78
2021/05/22 02:49:42;;;;;;;6.93;2.72;;;;;;;15.26;47.11;99438.91;3326443;29;20579;-77
2021/05/22 02:51:22;;;;;;;;;;;;;;;15.35;47.24;99436.69;3327842;29;20614;-77
2021/05/22 02:53:03;;;;;;;5.45;2.45;;;;;;;15.26;46.98;99438.09;3323161;29;19928;-79
2021/05/22 02:54:46;;;;;;;9.90;3.22;;;;;;;15.32;47.00;99436.34;3310518;29;20042;-76
2021/05/22 02:56:27;;;;;;;3.20;2.10;;;;;;;15.31;46.90;99438.22;3320690;29;20467;-79
2021/05/22 02:58:09;;;;;;;7.87;2.90;;;;;;;15.36;46.88;99448.22;3323160;29;20053;-79
2021/05/22 02:59:50;;;;;;;8.75;3.38;;;;;;;15.40;46.91;99449.41;3323519;29;20046;-78
2021/05/22 03:01:31;;;;;;;6.38;3.30;;;;;;;15.41;46.84;99445.66;3323035;29;20077;-78
2021/05/22 03:03:12;;;;;;;8.90;3.30;;;;;;;15.46;46.82;99443.09;3323004;29;20078;-78
2021/05/22 03:04:56;;;;;;;12.52;3.25;;;;;;;15.47;46.75;99442.06;3322491;29;20057;-77
2021/05/22 03:06:36;;;;;;;6.43;2.53;;;;;;;15.48;46.70;99443.69;3323234;29;20053;-77
2021/05/22 03:08:17;;;;;;;6.57;2.95;;;;;;;15.58;46.53;99449.31;3326121;29;20054;-77
2021/05/22 03:09:58;;;;;;;8.10;2.70;;;;;;;15.63;46.53;99446.75;3324967;29;20511;-77
2021/05/22 03:11:38;;;;;;;6.75;3.28;;;;;;;15.70;46.78;99450.16;3325836;29;20078;-76
2021/05/22 03:13:19;;;;;;;9.27;3.35;;;;;;;15.76;46.56;99447.59;3326034;29;20042;-80
2021/05/22 03:15:01;;;;;;;8.93;2.97;;;;;;;15.81;46.46;99450.41;3326043;29;20078;-77
2021/05/22 03:16:43;;;;;;;8.38;3.15;;;;;;;15.86;46.45;99447.81;3325283;29;20088;-79
2021/05/22 03:18:23;;;;;;;8.82;2.40;;;;;;;15.90;46.11;99448.97;3325893;29;20042;-78
2021/05/22 03:20:07;;;;;;;9.05;3.10;;;;;;;15.89;46.03;99458.09;3325913;29;20049;-79
2021/05/22 03:21:48;;;;;;;4.57;2.50;;;;;;;15.93;46.33;99451.22;3325972;29;20058;-76
2021/05/22 03:23:29;;;;;;;9.02;3.13;;;;;;;15.96;46.19;99448.06;3325048;29;20129;-80
2021/05/22 03:25:10;;;;;;;6.88;3.67;;;;;;;16.03;46.39;99454.13;3325829;29;20073;-77
2021/05/22 03:26:52;;;;;;;8.85;3.17;;;;;;;16.14;46.34;99455.97;3326101;29;20038;-78
2021/05/22 03:28:33;;;;;;;8.18;3.30;;;;;;;16.18;45.86;99461.69;3326060;29;20430;-78
2021/05/22 03:30:14;;;;;;;12.30;2.75;;;;;;;16.22;45.93;99457.47;3325985;29;20055;-78
2021/05/22 03:31:54;;;;;;;7.00;3.20;;;;;;;16.20;45.83;99459.56;3325843;29;20129;-78
2021/05/22 03:33:35;;;;;;;8.80;3.70;;;;;;;16.20;45.74;99467.63;3326100;29;21316;-78
2021/05/22 03:35:16;;;;;;;5.68;2.80;;;;;;;16.21;45.89;99461.22;3326213;29;20436;-78
2021/05/22 03:36:57;;;;;;;4.88;3.13;;;;;;;16.21;45.71;99461.22;3325675;29;20057;-77
2021/05/22 03:38:38;;;;;;;7.10;3.85;;;;;;;16.22;45.67;99462.84;3325940;29;20483;-76
2021/05/22 03:40:18;;;;;;;4.45;3.47;;;;;;;16.25;45.42;99464.25;3326138;29;20050;-76
2021/05/22 03:41:59;;;;;;;6.03;3.00;;;;;;;16.26;45.63;99465.88;3326241;29;20050;-78
2021/05/22 03:43:40;;;;;;;9.60;3.00;;;;;;;16.27;45.54;99464.84;3326192;29;20054;-79
2021/05/22 03:45:21;;;;;;;8.45;3.25;;;;;;;16.28;45.42;99463.75;3325823;29;20472;-78
2021/05/22 03:47:01;;;;;;;4.22;2.80;;;;;;;16.32;45.28;99463.06;3325844;29;20511;-80
2021/05/22 03:48:42;;;;;;;6.25;3.03;;;;;;;16.35;44.95;99464.47;3325696;29;20084;-78
2021/05/22 03:50:23;;;;;;;11.23;3.83;;;;;;;16.30;45.23;99470.53;3325468;29;20138;-77
2021/05/22 03:52:04;;;;;;;5.88;2.30;;;;;;;16.29;45.08;99466.22;3326017;29;20180;-76
2021/05/22 03:53:45;;;;;;;4.38;2.53;;;;;;;16.35;45.02;99472.53;3325939;29;20085;-78
2021/05/22 03:55:25;;;;;;;6.20;2.83;;;;;;;16.43;45.37;99476.72;3325732;29;20046;-78
2021/05/22 03:57:06;;;;;;;9.93;3.25;;;;;;;16.47;45.08;99483.25;3325538;29;20136;-78
2021/05/22 03:58:47;;;;;;;15.45;2.97;;;;;;;16.53;45.17;99468.84;3325738;29;20582;-76
2021/05/22 04:00:28;;;;;;;6.13;2.47;;;;;;;16.64;44.99;99480.63;3324732;29;20042;-78
2021/05/22 04:02:08;;;;;;;5.35;2.25;;;;;;;16.71;44.98;99482.13;3322288;29;20046;-78
2021/05/22 04:03:49;;;;;;;8.32;2.15;;;;;;;16.78;45.00;99479.34;3325497;29;20133;-78
2021/05/22 04:05:30;;;;;;;5.07;2.25;;;;;;;16.83;44.86;99478.59;3325584;29;20422;-77
2021/05/22 04:07:11;;;;;;;7.38;2.20;;;;;;;16.84;44.59;99474.84;3325697;29;20129;-73
2021/05/22 04:08:51;;;;;;;4.15;1.90;;;;;;;16.79;44.26;99473.69;3325383;29;20517;-75
2021/05/22 04:10:32;;;;;;;7.07;2.08;;;;;;;16.81;44.08;99481.53;3325621;29;20039;-73
2021/05/22 04:12:13;;;;;;;7.80;2.28;;;;;;;16.82;43.91;99483.16;3325368;29;20038;-73
2021/05/22 04:13:53;;;;;;;5.55;1.90;;;;;;;16.83;43.95;99484.81;3323465;29;20151;-72
2021/05/22 04:15:35;;;;;;;6.70;1.95;;;;;;;16.84;43.97;99486.44;3325677;29;20046;-72
2021/05/22 04:17:16;;;;;;;5.70;2.03;;;;;;;16.86;43.99;99484.31;3325152;29;20119;-72
2021/05/22 04:18:57;;;;;;;10.75;2.58;;;;;;;16.86;43.92;99478.94;3325477;29;20058;-71
2021/05/22 04:20:38;;;;;;;5.53;2.30;;;;;;;16.92;43.89;99488.75;3325365;29;20085;-72
2021/05/22 04:22:18;;;;;;;3.70;1.65;;;;;;;16.96;43.79;99489.91;3325267;29;20106;-72
2021/05/22 04:23:59;;;;;;;6.10;1.58;;;;;;;17.02;43.47;99490.00;3325358;29;20053;-72
2021/05/22 04:25:40;;;;;;;8.73;1.85;;;;;;;17.06;43.33;99493.81;3324538;29;20141;-73
2021/05/22 04:27:21;;;;;;;8.45;2.42;;;;;;;17.11;43.68;99483.13;3324427;29;20042;-73
2021/05/22 04:29:02;;;;;;;7.72;2.35;;;;;;;17.19;43.88;99490.81;3325112;29;20047;-74
2021/05/22 04:30:42;;;;;;;6.60;2.13;;;;;;;17.26;43.77;99496.88;3323706;29;20042;-72
2021/05/22 04:32:23;;;;;;;3.35;1.52;;;;;;;17.26;43.46;99478.03;3317513;29;20049;-73
2021/05/22 04:34:04;;;;;;;8.80;2.55;;;;;;;17.20;43.86;99460.16;3324944;29;20053;-73
2021/05/22 04:35:45;;;;;;;7.50;2.47;;;;;;;17.49;43.58;99487.84;3324712;29;20098;-72
2021/05/22 04:37:25;;;;;;;7.65;2.47;;;;;;;17.58;43.96;99493.63;3324622;29;20057;-73
2021/05/22 04:39:06;;;;;;;3.97;2.17;;;;;;;17.67;43.83;99494.84;3325201;29;20054;-73
2021/05/22 04:40:47;;;;;;;7.43;2.10;;;;;;;17.73;43.75;99496.56;3324702;29;20088;-73
2021/05/22 04:42:28;;;;;;;3.78;1.83;;;;;;;17.81;43.79;99498.88;3325003;29;20047;-73
2021/05/22 04:44:08;;;;;;;8.02;2.40;;;;;;;17.84;43.50;99492.19;3325237;29;20061;-74
2021/05/22 04:45:49;;;;;;;7.78;2.42;;;;;;;17.94;43.62;99494.19;3325134;29;20042;-76
2021/05/22 04:47:30;;;;;;;4.60;1.70;;;;;;;17.99;43.32;99507.75;3323990;29;20579;-75
2021/05/22 04:49:10;;;;;;;7.47;2.08;;;;;;;17.99;43.59;99486.19;3324684;29;20058;-73
2021/05/22 04:50:51;;;;;;;7.63;2.00;;;;;;;18.07;43.42;99497.38;3324432;29;20081;-73
2021/05/22 04:52:32;;;;;;;5.15;2.50;;;;;;;18.07;43.13;99499.22;3325079;29;20084;-72
2021/05/22 04:54:13;;;;;;;4.40;1.58;;;;;;;18.11;42.97;99497.69;3325242;29;20057;-73
2021/05/22 04:55:54;;;;;;;6.72;1.83;;;;;;;18.17;43.11;99493.16;3323228;29;20049;-73
2021/05/22 04:57:35;;;;;;;3.85;2.03;;;;;;;18.21;43.16;99497.00;3314719;29;20419;-74
2021/05/22 04:59:15;;;;;;;4.13;1.70;;;;;;;18.27;43.01;99501.41;3312480;29;20141;-72
2021/05/22 05:00:56;;;;;;;5.85;1.95;;;;;;;18.36;43.16;99501.81;3316580;29;20046;-73
2021/05/22 05:02:37;;;;;;;4.68;1.90;;;;;;;18.37;43.27;99492.63;3324945;29;20426;-76
2021/05/22 05:04:17;;;;;;;7.65;1.85;;;;;;;18.50;43.63;99489.56;3325001;29;20056;-71
2021/05/22 05:05:58;;;;;;;8.70;1.95;;;;;;;18.63;43.26;99504.56;3324866;29;20165;-73
2021/05/22 05:07:42;;;;;;;5.20;1.80;;;;;;;18.71;43.10;99507.59;3311047;29;20047;-74
2021/05/22 05:09:23;;;;;;;3.35;1.40;;;;;;;18.77;42.63;99507.69;3322127;29;20539;-73
2021/05/22 05:11:03;;;;;;;2.70;1.60;;;;;;;18.82;42.48;99502.34;3324575;29;20157;-73
2021/05/22 05:12:44;;;;;;;2.65;1.75;;;;;;;18.83;41.94;99517.50;3324925;29;20045;-73
2021/05/22 05:14:25;;;;;;;15.87;2.17;;;;;;;18.90;42.70;99512.72;3324791;29;20042;-74
2021/05/22 05:16:06;;;;;;;8.77;2.33;;;;;;;19.00;42.79;99512.84;3324768;29;20310;-73
2021/05/22 05:17:47;;;;;;;17.47;6.63;;;;;;;19.03;42.05;99506.13;3324162;29;20447;-73
2021/05/22 05:19:30;;;;;;;8.57;3.63;;;;;;;19.09;42.25;99511.31;3324468;29;20050;-73
2021/05/22 05:21:12;;;;;;;11.88;2.42;;;;;;;19.08;41.62;99517.78;3323877;29;20038;-72
2021/05/22 05:22:52;;;;;;;10.33;2.20;;;;;;;19.10;41.80;99512.09;3323896;29;20046;-73
2021/05/22 05:24:33;;;;;;;4.40;1.55;;;;;;;19.13;41.65;99512.44;3324576;29;20081;-73
2021/05/22 05:26:16;;;;;;;11.45;1.83;;;;;;;19.20;41.62;99516.81;3324279;29;20579;-75
2021/05/22 05:27:57;;;;;;;11.83;2.37;;;;;;;19.26;41.59;99523.88;3324300;29;20042;-75
2021/05/22 05:29:41;;;;;;;6.15;1.55;;;;;;;19.32;41.57;99528.28;3324514;29;20131;-74
2021/05/22 05:31:21;;;;;;;4.72;2.25;;;;;;;19.44;42.04;99528.94;3323416;29;20054;-75
2021/05/22 05:33:02;;;;;;;3.30;1.87;;;;;;;19.54;41.78;99537.13;3324075;29;20051;-74
2021/05/22 05:34:43;;;;;;;20.98;11.82;;;;;;;19.63;41.22;99533.97;3323305;29;20056;-72
2021/05/22 05:36:24;;;;;;;7.55;4.28;;;;;;;19.69;41.43;99536.47;3324342;29;20497;-73
2021/05/22 05:38:04;;;;;;;4.68;2.17;;;;;;;19.70;41.18;99524.59;3324985;29;20042;-74
2021/05/22 05:39:45;;;;;;;4.40;1.83;;;;;;;19.68;40.65;99531.31;3324786;29;20062;-75
2021/05/22 05:41:26;;;;;;;8.47;1.40;;;;;;;19.66;40.67;99530.72;3324195;29;20042;-73
2021/05/22 05:43:10;;;;;;;9.07;1.80;;;;;;;19.64;40.25;99530.97;3324092;29;20043;-73
2021/05/22 05:44:51;;;;;;;8.77;1.77;;;;;;;19.58;40.29;99535.53;3317054;29;20047;-74
2021/05/22 05:46:31;;;;;;;3.90;1.30;;;;;;;19.60;40.58;99538.81;3311913;29;20061;-72
2021/05/22 05:48:12;;;;;;;7.93;1.85;;;;;;;19.61;40.79;99534.19;3311759;29;20047;-75
2021/05/22 05:49:53;;;;;;;6.18;1.48;;;;;;;19.72;40.40;99540.53;3310844;29;20434;-76
2021/05/22 05:51:35;;;;;;;3.88;1.60;;;;;;;19.80;40.86;99543.59;3321132;29;20042;-74
2021/05/22 05:53:16;;;;;;;17.67;1.85;;;;;;;19.99;42.41;99548.59;3324477;29;20511;-68
2021/05/22 05:54:57;;;;;;;6.45;1.77;;;;;;;20.22;43.12;99548.19;3324417;29;20050;-68
2021/05/22 05:56:37;;;;;;;9.10;1.80;;;;;;;20.42;42.17;99555.63;3324327;29;20057;-68
2021/05/22 05:58:18;;;;;;;6.43;1.70;;;;;;;20.57;41.63;99545.97;3324444;29;20046;-69
2021/05/22 06:00:00;;;;;;;4.87;1.67;;;;;;;20.67;41.69;99541.41;3324217;29;20050;-71
2021/05/22 06:01:41;;;;;;;4.82;1.13;;;;;;;20.91;41.69;99547.19;3324047;29;20391;-70
2021/05/22 06:03:26;;;;;;;9.05;1.75;;;;;;;21.10;41.04;99557.53;3324294;29;20103;-69
2021/05/22 06:05:08;;;;;;;3.88;1.30;;;;;;;21.23;40.33;99559.75;3324472;29;20460;-69
2021/05/22 06:06:49;;;;;;;3.67;1.63;;;;;;;21.35;40.19;99552.19;3324377;29;20471;-69
2021/05/22 06:08:30;;;;;;;7.47;1.27;;;;;;;21.47;40.27;99554.66;3324595;29;21268;-69
2021/05/22 06:10:12;;;;;;;7.53;1.53;;;;;;;21.60;39.94;99550.59;3324409;29;20058;-70
2021/05/22 06:11:52;;;;;;;2.33;1.05;;;;;;;21.64;39.33;99550.88;3322978;29;20118;-69
2021/05/22 06:13:35;;;;;;;9.77;1.40;;;;;;;21.77;39.06;99548.44;3324651;29;20058;-69
2021/05/22 06:16:56;;;;;;;6.43;2.60;;;;;;;21.81;38.14;99550.59;3324309;29;20050;-69
2021/05/22 06:18:39;;;;;;;8.53;1.20;;;;;;;21.82;38.05;99555.75;3324256;29;20061;-68
2021/05/22 06:20:20;;;;;;;4.47;1.00;;;;;;;21.94;38.06;99553.59;3325170;29;20046;-70
2021/05/22 06:22:00;;;;;;;4.07;1.10;;;;;;;22.07;37.67;99557.66;3326841;29;20107;-70
2021/05/22 06:23:42;;;;;;;2.95;1.42;;;;;;;22.19;37.31;99555.47;3326693;29;20506;-69
2021/05/22 06:25:23;;;;;;;7.47;4.80;;;;;;;22.34;37.38;99557.34;3326345;29;20142;-68
2021/05/22 06:27:05;;;;;;;5.53;2.03;;;;;;;22.51;36.84;99562.47;3326119;29;20050;-69
2021/05/22 06:28:46;;;;;;;5.40;1.67;;;;;;;22.67;36.68;99570.56;3323351;29;20051;-69
2021/05/22 06:30:27;;;;;;;5.43;1.83;;;;;;;22.81;36.74;99560.72;3326068;29;20541;-70
2021/05/22 06:32:08;;;;;;;3.47;1.37;;;;;;;22.94;36.44;99559.28;3325805;29;20070;-68
2021/05/22 06:33:48;;;;;;;1.60;1.00;;;;;;;22.99;36.03;99567.44;3313030;29;20050;-68
2021/05/22 06:35:29;;;;;;;7.73;1.90;;;;;;;23.00;36.10;99561.75;3323332;29;20074;-69
2021/05/22 06:37:10;;;;;;;3.27;1.23;;;;;;;23.00;35.63;99566.34;3326201;29;20084;-69
2021/05/22 06:38:50;;;;;;;2.73;1.20;;;;;;;22.96;35.75;99567.97;3325647;29;20046;-70
2021/05/22 06:40:31;;;;;;;4.53;1.20;;;;;;;23.00;35.94;99566.34;3325469;29;20514;-70
2021/05/22 06:42:12;;;;;;;9.20;1.70;;;;;;;23.04;35.85;99570.13;3326032;29;20034;-70
2021/05/22 06:43:52;;;;;;;8.67;1.63;;;;;;;23.16;35.81;99567.91;3326250;29;20057;-70
2021/05/22 06:45:42;;;;;;;6.23;1.60;;;;;;;23.28;35.50;99559.38;3325846;29;20039;-72
2021/05/22 06:47:22;;;;;;;1.92;0.90;;;;;;;23.39;35.37;99560.97;3326227;29;20188;-69
2021/05/22 06:49:03;;;;;;;6.43;1.30;;;;;;;23.48;35.09;99563.88;3326224;29;20061;-70
2021/05/22 06:50:44;;;;;;;6.43;1.00;;;;;;;23.62;35.33;99558.59;3325066;29;20049;-70
2021/05/22 06:52:25;;;;;;;5.43;1.43;;;;;;;23.76;35.22;99554.19;3325889;29;20050;-70
2021/05/22 06:54:06;;;;;;;6.20;1.10;;;;;;;23.88;34.92;99551.91;3326126;29;20046;-70
2021/05/22 06:55:47;;;;;;;4.38;1.05;;;;;;;23.96;34.63;99558.63;3317448;29;20130;-70
2021/05/22 06:57:28;;;;;;;5.43;1.37;;;;;;;24.02;34.90;99537.63;3325852;29;20103;-68
2021/05/22 06:59:09;;;;;;;3.97;1.00;;;;;;;24.15;34.75;99547.81;3326083;29;20042;-71
2021/05/22 07:00:49;;;;;;;7.80;1.27;;;;;;;24.26;34.95;99562.16;3326204;29;20498;-69
2021/05/22 07:02:30;;;;;;;6.67;1.20;;;;;;;24.28;34.37;99549.88;3326000;29;20053;-70
2021/05/22 07:04:11;;;;;;;9.00;1.57;;;;;;;24.31;34.25;99559.38;3326284;29;20049;-71
2021/05/22 07:05:52;;;;;;;4.53;1.17;;;;;;;24.23;34.03;99558.09;3325010;29;20077;-71
2021/05/22 07:07:33;;;;;;;4.32;1.20;;;;;;;24.08;33.99;99555.53;3326021;29;20049;-69
2021/05/22 07:09:13;;;;;;;3.93;1.10;;;;;;;24.01;34.34;99544.97;3325838;29;20517;-70
2021/05/22 07:10:55;;;;;;;5.60;1.07;;;;;;;24.06;34.24;99557.72;3325388;29;20529;-69
2021/05/22 07:12:36;;;;;;;;;;;;;;;24.20;34.69;99555.94;3326598;29;20601;-67
2021/05/22 07:14:16;;;;;;;2.88;1.08;;;;;;;24.25;34.34;99557.81;3325908;29;19931;-69
2021/05/22 07:15:57;;;;;;;4.70;1.00;;;;;;;24.37;34.33;99553.59;3326148;29;20122;-71
2021/05/22 07:17:38;;;;;;;7.87;1.93;;;;;;;24.42;34.28;99549.16;3326000;29;20047;-69
2021/05/22 07:19:18;;;;;;;4.73;1.10;;;;;;;24.44;34.17;99546.97;3326020;29;20047;-69
2021/05/22 07:20:59;;;;;;;11.20;1.23;;;;;;;24.45;33.99;99533.09;3326001;29;20050;-70
2021/05/22 07:22:40;;;;;;;6.97;1.37;;;;;;;24.59;33.77;99550.34;3325666;29;20074;-70
2021/05/22 07:24:21;;;;;;;7.13;1.47;;;;;;;24.71;33.56;99557.34;3325781;29;20192;-70
2021/05/22 07:26:03;;;;;;;3.10;1.15;;;;;;;24.80;33.65;99555.56;3325249;29;20046;-70
2021/05/22 07:27:44;;;;;;;3.92;1.00;;;;;;;24.91;33.57;99543.44;3313600;29;20042;-70
2021/05/22 07:29:26;;;;;;;4.88;1.20;;;;;;;25.06;33.27;99544.31;3313367;29;20108;-69
2021/05/22 07:31:07;;;;;;;5.45;1.02;;;;;;;25.14;33.00;99555.38;3320311;29;20038;-69
2021/05/22 07:32:48;;;;;;;2.50;1.03;;;;;;;25.19;33.09;99540.88;3322810;29;20088;-69
2021/05/22 07:34:29;;;;;;;7.57;1.05;;;;;;;25.29;33.38;99542.66;3325570;29;20052;-69
2021/05/22 07:36:10;;;;;;;5.57;1.30;;;;;;;25.44;32.93;99548.69;3325276;29;20042;-70
2021/05/22 07:37:51;;;;;;;8.23;2.03;;;;;;;25.62;32.94;99552.50;3325255;29;20046;-70
2021/05/22 07:39:31;;;;;;;8.03;1.63;;;;;;;25.75;32.74;99545.47;3325904;29;20110;-71
2021/05/22 07:41:12;;;;;;;12.70;2.00;;;;;;;25.86;32.30;99546.13;3324957;29;20053;-70
2021/05/22 07:42:53;;;;;;;4.90;1.43;;;;;;;26.00;32.54;99543.44;3325476;29;20514;-70
2021/05/22 07:44:34;;;;;;;9.70;1.53;;;;;;;25.94;32.04;99545.44;3324349;29;20545;-70
2021/05/22 07:46:14;;;;;;;1.90;1.10;;;;;;;25.88;31.73;99539.25;3315695;29;20055;-70
2021/05/22 07:47:55;;;;;;;4.43;1.23;;;;;;;25.89;31.80;99542.78;3312945;29;20047;-70
2021/05/22 07:49:38;;;;;;;3.13;0.90;;;;;;;25.81;31.59;99546.19;3312786;29;20119;-70
2021/05/22 07:51:20;;;;;;;4.80;1.30;;;;;;;25.78;31.78;99547.59;3318580;29;20430;-68
2021/05/22 07:53:02;;;;;;;3.33;1.10;;;;;;;25.74;31.95;99543.84;3325490;29;20056;-69
2021/05/22 07:54:43;;;;;;;1.65;1.15;;;;;;;25.71;31.75;99541.69;3325491;29;20046;-70
2021/05/22 07:56:24;;;;;;;1.73;1.17;;;;;;;25.59;31.85;99544.91;3325242;29;20494;-69
2021/05/22 07:58:04;;;;;;;4.73;1.53;;;;;;;25.40;31.97;99549.56;3325607;29;20510;-70
2021/05/22 07:59:45;;;;;;;7.33;1.27;;;;;;;25.40;32.36;99546.84;3325717;29;20074;-70